createdAt,value
2022-09-17T00:01:41.167Z,100036.56
2022-09-17T00:04:10.984Z,100038.13
2022-09-17T00:06:39.384Z,100038.75
2022-09-17T00:09:09.835Z,100032.34
2022-09-17T00:11:42.581Z,100040.34
2022-09-17T00:14:14.857Z,100039.22
2022-09-17T00:16:47.058Z,100040.78
2022-09-17T00:19:20.357Z,100038.81
2022-09-17T00:21:49.211Z,100040.53
2022-09-17T00:24:20.586Z,100038.56
2022-09-17T00:26:49.559Z,100032.16
2022-09-17T00:29:18.177Z,100026.75
2022-09-17T00:31:46.583Z,100039.44
2022-09-17T00:34:14.841Z,100043.84
2022-09-17T00:36:43.158Z,100037.59
2022-09-17T00:39:15.644Z,100043.84
2022-09-17T00:41:45.546Z,100042.84
2022-09-17T00:44:46.136Z,100040.16
2022-09-17T00:47:20.399Z,100050.84
2022-09-17T00:49:50.216Z,100048.13
2022-09-17T00:52:22.961Z,100056.25
2022-09-17T00:54:58.479Z,100049.41
2022-09-17T00:57:29.296Z,100048.41
2022-09-17T00:59:57.655Z,100046.41
2022-09-17T01:02:27.051Z,100059.81
2022-09-17T01:04:56.204Z,100047.13
2022-09-17T01:08:04.151Z,100051.56
2022-09-17T01:10:59.822Z,100052.41
2022-09-17T01:13:42.034Z,100053.28
2022-09-17T01:16:19.546Z,100051.69
2022-09-17T01:19:05.801Z,100051.84
2022-09-17T01:22:02.258Z,100059.09
2022-09-17T01:24:52.169Z,100050.13
2022-09-17T01:28:08.013Z,100060.09
2022-09-17T01:31:13.665Z,100047.53
2022-09-17T01:33:50.016Z,100059.22
2022-09-17T01:36:43.895Z,100060.09
2022-09-17T01:39:27.138Z,100064.50
2022-09-17T01:42:05.879Z,100066.34
2022-09-17T01:44:41.643Z,100054.81
2022-09-17T01:47:20.858Z,100059.38
2022-09-17T01:49:53.780Z,100056.66
2022-09-17T01:52:23.426Z,100058.59
2022-09-17T01:54:58.662Z,100071.41
2022-09-17T01:57:33.857Z,100067.13
2022-09-17T02:00:09.735Z,100071.22
2022-09-17T02:02:46.511Z,100075.28
2022-09-17T02:05:21.145Z,100067.56
2022-09-17T02:07:55.308Z,100072.34
2022-09-17T02:10:29.803Z,100063.91
2022-09-17T02:13:04.056Z,100080.53
2022-09-17T02:15:38.600Z,100079.03
2022-09-17T02:18:14.341Z,100071.19
2022-09-17T02:20:49.477Z,100071.59
2022-09-17T02:23:26.458Z,100069.03
2022-09-17T02:26:00.624Z,100065.47
2022-09-17T02:28:36.269Z,100067.28
2022-09-17T02:31:04.823Z,100068.16
2022-09-17T02:33:36.849Z,100069.03
2022-09-17T02:36:05.405Z,100067.16
2022-09-17T02:38:33.833Z,100063.59
2022-09-17T02:41:14.442Z,100067.28
2022-09-17T02:43:56.657Z,100062.25
2022-09-17T02:46:48.510Z,100067.19
2022-09-17T02:49:38.845Z,100059.44
2022-09-17T02:52:19.277Z,100052.84
2022-09-17T02:55:02.758Z,100060.44
2022-09-17T02:57:39.440Z,100068.22
2022-09-17T03:00:15.968Z,100065.00
2022-09-17T03:02:49.003Z,100065.41
2022-09-17T03:05:21.368Z,100065.91
2022-09-17T03:07:49.776Z,100064.41
2022-09-17T03:10:19.981Z,100067.50
2022-09-17T03:12:48.167Z,100064.31
2022-09-17T03:15:16.514Z,100060.25
2022-09-17T03:17:44.669Z,100055.09
2022-09-17T03:20:13.944Z,100056.22
2022-09-17T03:22:43.571Z,100052.00
2022-09-17T03:25:12.638Z,100063.88
2022-09-17T03:27:41.117Z,100064.28
2022-09-17T03:30:10.115Z,100054.56
2022-09-17T03:32:38.269Z,100056.50
2022-09-17T03:35:06.980Z,100058.59
2022-09-17T03:37:35.189Z,100063.28
2022-09-17T03:40:05.939Z,100057.13
2022-09-17T03:42:34.137Z,100060.81
2022-09-17T03:45:02.382Z,100065.50
2022-09-17T03:47:31.236Z,100056.63
2022-09-17T03:49:59.406Z,100057.72
2022-09-17T03:52:27.623Z,100060.69
2022-09-17T03:54:55.781Z,100064.59
2022-09-17T03:57:25.300Z,100055.00
2022-09-17T03:59:53.453Z,100063.34
2022-09-17T04:02:21.721Z,100066.28
2022-09-17T04:04:50.059Z,100062.13
2022-09-17T04:07:18.271Z,100069.56
2022-09-17T04:09:46.440Z,100065.28
2022-09-17T04:12:14.673Z,100064.66
2022-09-17T04:14:44.250Z,100059.59
2022-09-17T04:17:18.069Z,100068.81
2022-09-17T04:19:46.270Z,100064.63
2022-09-17T04:22:14.465Z,100075.66
2022-09-17T04:24:42.684Z,100060.47
2022-09-17T04:27:10.840Z,100074.03
2022-09-17T04:29:39.005Z,100065.22
2022-09-17T04:32:08.899Z,100072.56
2022-09-17T04:34:37.079Z,100069.25
2022-09-17T04:37:05.385Z,100065.81
2022-09-17T04:39:33.619Z,100070.47
2022-09-17T04:42:01.844Z,100072.38
2022-09-17T04:44:30.038Z,100074.34
2022-09-17T04:46:58.289Z,100079.75
2022-09-17T04:49:29.820Z,100079.75
2022-09-17T04:51:58.098Z,100076.31
2022-09-17T04:54:26.310Z,100069.06
2022-09-17T04:56:54.547Z,100078.16
2022-09-17T04:59:22.767Z,100076.53
2022-09-17T05:01:51.031Z,100068.56
2022-09-17T05:04:19.342Z,100061.69
2022-09-17T05:06:48.976Z,100069.88
2022-09-17T05:09:17.166Z,100073.56
2022-09-17T05:11:45.566Z,100074.53
2022-09-17T05:14:14.466Z,100076.38
2022-09-17T05:16:42.752Z,100077.47
2022-09-17T05:19:10.933Z,100070.34
2022-09-17T05:21:39.170Z,100085.69
2022-09-17T05:24:08.907Z,100086.53
2022-09-17T05:26:37.081Z,100082.97
2022-09-17T05:29:05.538Z,100087.38
2022-09-17T05:31:33.819Z,100086.53
2022-09-17T05:34:02.100Z,100085.56
2022-09-17T05:36:30.549Z,100078.22
2022-09-17T05:38:58.732Z,100088.75
2022-09-17T05:41:28.255Z,100083.16
2022-09-17T05:43:56.566Z,100087.44
2022-09-17T05:46:24.883Z,100094.44
2022-09-17T05:48:56.348Z,100101.56
2022-09-17T05:51:24.699Z,100092.47
2022-09-17T05:53:55.212Z,100099.59
2022-09-17T05:56:24.078Z,100088.56
2022-09-17T05:58:57.476Z,100101.06
2022-09-17T06:01:26.146Z,100096.44
2022-09-17T06:03:54.884Z,100101.72
2022-09-17T06:06:23.122Z,100103.31
2022-09-17T06:08:51.565Z,100105.66
2022-09-17T06:11:19.810Z,100098.84
2022-09-17T06:13:48.067Z,100109.69
2022-09-17T06:16:17.619Z,100108.75
2022-09-17T06:18:45.799Z,100100.31
2022-09-17T06:21:14.635Z,100103.53
2022-09-17T06:23:43.527Z,100098.00
2022-09-17T06:26:12.632Z,100099.41
2022-09-17T06:28:41.928Z,100107.75
2022-09-17T06:31:12.405Z,100103.84
2022-09-17T06:33:42.427Z,100112.44
2022-09-17T06:36:14.658Z,100104.81
2022-09-17T06:38:43.502Z,100107.16
2022-09-17T06:41:12.427Z,100116.47
2022-09-17T06:43:40.577Z,100124.09
2022-09-17T06:46:09.286Z,100121.75
2022-09-17T06:48:38.903Z,100117.84
2022-09-17T06:51:11.349Z,100122.84
2022-09-17T06:53:40.388Z,100118.78
2022-09-17T06:56:10.272Z,100120.03
2022-09-17T06:58:41.509Z,100133.78
2022-09-17T07:01:11.159Z,100123.44
2022-09-17T07:03:39.515Z,100129.09
2022-09-17T07:06:11.285Z,100128.31
2022-09-17T07:08:40.194Z,100137.38
2022-09-17T07:11:09.071Z,100134.50
2022-09-17T07:13:37.347Z,100120.56
2022-09-17T07:16:07.558Z,100130.84
2022-09-17T07:18:35.886Z,100129.75
2022-09-17T07:21:07.132Z,100117.72
2022-09-17T07:23:38.402Z,100128.59
2022-09-17T07:26:09.260Z,100121.38
2022-09-17T07:28:40.377Z,100122.97
2022-09-17T07:31:15.187Z,100123.13
2022-09-17T07:33:45.589Z,100112.66
2022-09-17T07:36:17.787Z,100111.03
2022-09-17T07:38:47.931Z,100127.38
2022-09-17T07:41:18.555Z,100116.72
2022-09-17T07:43:47.499Z,100113.59
2022-09-17T07:46:18.320Z,100112.16
2022-09-17T07:48:47.746Z,100119.75
2022-09-17T07:51:20.370Z,100116.19
2022-09-17T07:53:52.854Z,100121.06
2022-09-17T07:56:21.283Z,100115.16
2022-09-17T07:58:49.730Z,100118.16
2022-09-17T08:01:20.895Z,100118.31
2022-09-17T08:03:51.901Z,100110.03
2022-09-17T08:06:23.403Z,100120.59
2022-09-17T08:08:52.914Z,100113.31
2022-09-17T08:11:44.742Z,100116.75
2022-09-17T08:14:15.495Z,100113.47
2022-09-17T08:16:45.661Z,100122.34
2022-09-17T08:19:13.870Z,100112.75
2022-09-17T08:21:42.110Z,100109.75
2022-09-17T08:24:11.845Z,100108.19
2022-09-17T08:26:40.598Z,100106.84
2022-09-17T08:29:10.489Z,100107.38
2022-09-17T08:31:38.803Z,100102.09
2022-09-17T08:34:10.286Z,100095.22
2022-09-17T08:36:38.953Z,100094.50
2022-09-17T08:39:07.383Z,100088.56
2022-09-17T08:42:03.259Z,100089.03
2022-09-17T08:44:41.092Z,100093.78
2022-09-17T08:47:18.506Z,100087.88
2022-09-17T08:49:53.862Z,100094.53
2022-09-17T08:52:57.670Z,100093.94
2022-09-17T08:55:36.786Z,100090.69
2022-09-17T08:58:55.628Z,100095.91
2022-09-17T09:01:35.284Z,100079.47
2022-09-17T09:04:33.131Z,100085.38
2022-09-17T09:07:07.599Z,100075.38
2022-09-17T09:09:41.328Z,100079.38
2022-09-17T09:12:19.907Z,100081.91
2022-09-17T09:14:55.396Z,100087.31
2022-09-17T09:17:27.037Z,100097.44
2022-09-17T09:19:56.422Z,100083.16
2022-09-17T09:22:48.345Z,100081.28
2022-09-17T09:25:27.199Z,100087.25
2022-09-17T09:28:09.255Z,100085.06
2022-09-17T09:30:56.648Z,100079.44
2022-09-17T09:33:31.664Z,100081.50
2022-09-17T09:36:00.853Z,100078.72
2022-09-17T09:38:35.004Z,100087.25
2022-09-17T09:41:10.743Z,100077.19
2022-09-17T09:44:03.310Z,100084.16
2022-09-17T09:46:59.516Z,100087.84
2022-09-17T09:49:48.378Z,100082.31
2022-09-17T09:52:33.823Z,100078.44
2022-09-17T09:55:26.760Z,100079.41
2022-09-17T09:58:04.325Z,100092.41
2022-09-17T10:00:37.842Z,100085.13
2022-09-17T10:03:17.610Z,100094.88
2022-09-17T10:05:57.320Z,100084.69
2022-09-17T10:08:26.558Z,100103.84
2022-09-17T10:11:02.540Z,100098.94
2022-09-17T10:13:35.650Z,100093.25
2022-09-17T10:16:19.413Z,100092.22
2022-09-17T10:18:50.783Z,100091.91
2022-09-17T10:21:24.524Z,100093.00
2022-09-17T10:23:52.829Z,100087.41
2022-09-17T10:26:26.955Z,100084.22
2022-09-17T10:28:57.034Z,100080.25
2022-09-17T10:31:25.811Z,100084.22
2022-09-17T10:33:59.696Z,100086.34
2022-09-17T10:36:40.835Z,100094.16
2022-09-17T10:39:34.225Z,100082.81
2022-09-17T10:42:04.758Z,100093.06
2022-09-17T10:44:36.577Z,100081.19
2022-09-17T10:47:09.043Z,100078.09
2022-09-17T10:49:43.566Z,100072.94
2022-09-17T10:52:25.860Z,100064.63
2022-09-17T10:55:23.756Z,100069.22
2022-09-17T10:58:05.303Z,100074.72
2022-09-17T11:00:50.293Z,100068.75
2022-09-17T11:04:00.690Z,100076.34
2022-09-17T11:07:11.073Z,100077.69
2022-09-17T11:09:53.839Z,100085.75
2022-09-17T11:12:38.136Z,100087.03
2022-09-17T11:15:26.498Z,100087.59
2022-09-17T11:18:41.353Z,100085.13
2022-09-17T11:21:41.260Z,100093.78
2022-09-17T11:25:05.380Z,100092.78
2022-09-17T11:27:53.662Z,100092.25
2022-09-17T11:30:24.161Z,100099.69
2022-09-17T11:33:09.372Z,100095.97
2022-09-17T11:35:41.930Z,100094.94
2022-09-17T11:38:19.382Z,100096.50
2022-09-17T11:40:54.601Z,100088.91
2022-09-17T11:43:27.769Z,100091.63
2022-09-17T11:46:04.555Z,100092.94
2022-09-17T11:48:46.486Z,100087.09
2022-09-17T11:51:27.245Z,100101.69
2022-09-17T11:54:05.079Z,100099.56
2022-09-17T11:56:41.291Z,100105.84
2022-09-17T11:59:20.530Z,100115.91
2022-09-17T12:01:54.117Z,100114.47
2022-09-17T12:04:40.626Z,100112.16
2022-09-17T12:07:23.048Z,100110.59
2022-09-17T12:09:58.426Z,100115.06
2022-09-17T12:12:48.933Z,100113.19
2022-09-17T12:15:24.552Z,100119.75
2022-09-17T12:18:27.643Z,100118.16
2022-09-17T12:20:56.583Z,100115.91
2022-09-17T12:23:35.742Z,100124.03
2022-09-17T12:26:23.411Z,100113.75
2022-09-17T12:29:01.706Z,100112.31
2022-09-17T12:31:41.635Z,100112.06
2022-09-17T12:34:33.074Z,100102.03
2022-09-17T12:37:12.048Z,100099.63
2022-09-17T12:40:21.857Z,100106.47
2022-09-17T12:43:17.572Z,100114.19
2022-09-17T12:46:08.829Z,100126.91
2022-09-17T12:49:05.728Z,100135.91
2022-09-17T12:51:54.043Z,100146.78
2022-09-17T12:55:00.519Z,100154.63
2022-09-17T12:57:39.904Z,100150.94
2022-09-17T13:00:12.846Z,100150.31
2022-09-17T13:02:49.479Z,100149.44
2022-09-17T13:06:09.127Z,100140.72
2022-09-17T13:09:13.341Z,100149.81
2022-09-17T13:12:16.838Z,100154.75
2022-09-17T13:18:22.885Z,100147.94
2022-09-17T13:21:04.321Z,100142.22
2022-09-17T13:23:41.538Z,100151.22
2022-09-17T13:26:11.559Z,100153.78
2022-09-17T13:31:55.172Z,100165.06
2022-09-17T13:34:35.976Z,100157.53
2022-09-17T13:37:05.624Z,100173.53
2022-09-17T13:39:43.525Z,100184.38
2022-09-17T13:42:21.329Z,100183.91
2022-09-17T13:45:03.149Z,100187.44
2022-09-17T13:47:33.433Z,100183.81
2022-09-17T13:50:07.328Z,100180.06
2022-09-17T13:52:43.292Z,100184.16
2022-09-17T13:55:35.245Z,100183.84
2022-09-17T13:58:07.258Z,100188.81
2022-09-17T14:00:57.988Z,100188.94
2022-09-17T14:03:56.871Z,100190.38
2022-09-17T14:06:55.884Z,100188.25
2022-09-17T14:09:54.454Z,100197.00
2022-09-17T14:12:55.201Z,100190.31
2022-09-17T14:16:00.761Z,100195.59
2022-09-17T14:18:59.998Z,100197.72
2022-09-17T14:21:33.115Z,100200.44
2022-09-17T14:24:05.796Z,100199.56
2022-09-17T14:27:01.012Z,100196.16
2022-09-17T14:30:06.998Z,100199.09
2022-09-17T14:32:43.588Z,100200.56
2022-09-17T14:35:22.964Z,100205.59
2022-09-17T14:37:57.427Z,100200.47
2022-09-17T14:40:28.320Z,100197.38
2022-09-17T14:42:59.310Z,100193.53
2022-09-17T14:45:32.409Z,100193.25
2022-09-17T14:48:31.516Z,100197.09
2022-09-17T14:51:30.544Z,100189.63
2022-09-17T14:54:20.630Z,100189.31
2022-09-17T14:56:58.729Z,100196.66
2022-09-17T15:00:01.401Z,100217.81
2022-09-17T15:02:35.838Z,100226.84
2022-09-17T15:05:20.186Z,100232.16
2022-09-17T15:07:49.055Z,100244.53
2022-09-17T15:10:20.246Z,100233.91
2022-09-17T15:12:51.672Z,100241.19
2022-09-17T15:15:23.876Z,100247.38
2022-09-17T15:17:53.847Z,100240.22
2022-09-17T15:20:25.394Z,100245.75
2022-09-17T15:23:08.690Z,100245.16
2022-09-17T15:25:38.985Z,100242.22
2022-09-17T15:28:30.590Z,100249.28
2022-09-17T15:30:58.937Z,100249.75
2022-09-17T15:33:28.943Z,100256.38
2022-09-17T15:36:07.916Z,100255.66
2022-09-17T15:38:39.144Z,100269.44
2022-09-17T15:41:34.622Z,100272.78
2022-09-17T15:44:29.812Z,100280.28
2022-09-17T15:47:36.586Z,100294.28
2022-09-17T15:50:16.424Z,100299.69
2022-09-17T15:52:45.094Z,100307.47
2022-09-17T15:55:37.345Z,100303.28
2022-09-17T15:58:21.070Z,100304.47
2022-09-17T16:01:39.520Z,100302.38
2022-09-17T16:04:22.386Z,100301.84
2022-09-17T16:06:58.498Z,100301.94
2022-09-17T16:09:48.762Z,100306.31
2022-09-17T16:12:21.700Z,100301.63
2022-09-17T16:14:57.258Z,100307.59
2022-09-17T16:17:35.627Z,100301.66
2022-09-17T16:20:10.651Z,100310.31
2022-09-17T16:22:38.848Z,100315.78
2022-09-17T16:25:08.149Z,100327.47
2022-09-17T16:27:50.413Z,100313.47
2022-09-17T16:30:21.852Z,100313.34
2022-09-17T16:32:52.185Z,100317.66
2022-09-17T16:35:23.674Z,100311.28
2022-09-17T16:37:53.370Z,100313.91
2022-09-17T16:40:24.811Z,100303.97
2022-09-17T16:42:53.113Z,100309.56
2022-09-17T16:45:24.325Z,100307.84
2022-09-17T16:47:56.296Z,100313.25
2022-09-17T16:50:24.815Z,100325.13
2022-09-17T16:52:53.861Z,100315.19
2022-09-17T16:55:22.782Z,100322.09
2022-09-17T16:57:51.003Z,100314.75
2022-09-17T17:00:21.534Z,100319.91
2022-09-17T17:02:58.913Z,100323.38
2022-09-17T17:05:28.262Z,100324.97
2022-09-17T17:07:56.755Z,100335.88
2022-09-17T17:10:26.480Z,100320.66
2022-09-17T17:12:54.753Z,100320.66
2022-09-17T17:15:23.677Z,100307.16
2022-09-17T17:17:52.434Z,100316.13
2022-09-17T17:20:21.973Z,100306.19
2022-09-17T17:22:50.704Z,100316.00
2022-09-17T17:25:19.286Z,100313.31
2022-09-17T17:27:47.502Z,100308.66
2022-09-17T17:30:17.525Z,100304.97
2022-09-17T17:32:50.848Z,100304.03
2022-09-17T17:35:19.271Z,100301.22
2022-09-17T17:37:49.080Z,100303.78
2022-09-17T17:40:17.589Z,100305.50
2022-09-17T17:42:47.527Z,100317.28
2022-09-17T17:45:16.068Z,100316.44
2022-09-17T17:47:44.277Z,100323.56
2022-09-17T17:50:12.487Z,100326.38
2022-09-17T17:52:43.484Z,100329.06
2022-09-17T17:55:13.146Z,100330.78
2022-09-17T17:57:41.758Z,100327.09
2022-09-17T18:00:12.083Z,100328.94
2022-09-17T18:02:40.570Z,100324.41
2022-09-17T18:05:11.679Z,100335.22
2022-09-17T18:07:40.116Z,100335.22
2022-09-17T18:10:09.220Z,100336.94
2022-09-17T18:12:38.739Z,100341.59
2022-09-17T18:15:08.533Z,100338.16
2022-09-17T18:17:36.749Z,100337.38
2022-09-17T18:20:05.990Z,100343.88
2022-09-17T18:22:34.308Z,100343.97
2022-09-17T18:25:02.620Z,100348.63
2022-09-17T18:27:30.787Z,100355.75
2022-09-17T18:30:00.372Z,100355.75
2022-09-17T18:32:29.022Z,100353.06
2022-09-17T18:34:57.240Z,100358.56
2022-09-17T18:37:25.461Z,100363.84
2022-09-17T18:39:58.337Z,100364.72
2022-09-17T18:42:27.223Z,100363.75
2022-09-17T18:44:55.485Z,100365.47
2022-09-17T18:47:25.059Z,100361.78
2022-09-17T18:49:53.294Z,100365.22
2022-09-17T18:52:21.698Z,100358.88
2022-09-17T18:54:49.904Z,100366.88
2022-09-17T18:57:18.134Z,100365.88
2022-09-17T18:59:46.334Z,100365.66
2022-09-17T19:02:14.722Z,100367.38
2022-09-17T19:04:44.321Z,100372.53
2022-09-17T19:07:12.525Z,100380.53
2022-09-17T19:09:40.771Z,100373.19
2022-09-17T19:12:09.102Z,100372.22
2022-09-17T19:14:37.308Z,100369.41
2022-09-17T19:17:05.573Z,100375.53
2022-09-17T19:19:33.784Z,100369.16
2022-09-17T19:22:03.341Z,100375.31
2022-09-17T19:24:31.573Z,100376.94
2022-09-17T19:27:01.461Z,100373.25
2022-09-17T19:29:29.685Z,100376.84
2022-09-17T19:31:57.893Z,100386.69
2022-09-17T19:34:26.208Z,100384.72
2022-09-17T19:36:54.381Z,100385.47
2022-09-17T19:39:23.980Z,100384.38
2022-09-17T19:41:52.182Z,100388.78
2022-09-17T19:44:20.599Z,100388.66
2022-09-17T19:46:51.175Z,100395.91
2022-09-17T19:49:19.473Z,100396.66
2022-09-17T19:51:47.771Z,100397.53
2022-09-17T19:54:15.967Z,100401.97
2022-09-17T19:56:46.405Z,100400.13
2022-09-17T19:59:14.796Z,100398.28
2022-09-17T20:01:49.334Z,100393.75
2022-09-17T20:04:18.093Z,100396.34
2022-09-17T20:06:46.402Z,100396.34
2022-09-17T20:09:14.741Z,100405.19
2022-09-17T20:11:43.153Z,100401.50
2022-09-17T20:14:13.737Z,100408.75
2022-09-17T20:16:43.451Z,100401.50
2022-09-17T20:19:16.861Z,100402.59
2022-09-17T20:21:45.150Z,100403.81
2022-09-17T20:24:13.711Z,100406.84
2022-09-17T20:26:42.215Z,100408.06
2022-09-17T20:29:11.864Z,100418.31
2022-09-17T20:31:40.185Z,100413.22
2022-09-17T20:34:08.463Z,100411.75
2022-09-17T20:36:36.814Z,100413.78
2022-09-17T20:39:22.053Z,100412.19
2022-09-17T20:41:51.254Z,100417.94
2022-09-17T20:44:21.017Z,100414.72
2022-09-17T20:46:49.516Z,100414.28
2022-09-17T20:49:17.767Z,100417.44
2022-09-17T20:51:46.533Z,100419.72
2022-09-17T20:54:15.546Z,100421.97
2022-09-17T20:56:43.845Z,100424.03
2022-09-17T20:59:18.471Z,100418.22
2022-09-17T21:01:50.176Z,100427.59
2022-09-17T21:04:21.131Z,100430.75
2022-09-17T21:06:53.278Z,100427.31
2022-09-17T21:09:21.688Z,100429.44
2022-09-17T21:11:50.649Z,100427.84
2022-09-17T21:14:20.567Z,100422.66
2022-09-17T21:16:50.372Z,100424.69
2022-09-17T21:19:20.115Z,100422.97
2022-09-17T21:21:51.655Z,100417.81
2022-09-17T21:24:19.821Z,100420.59
2022-09-17T21:26:48.185Z,100422.56
2022-09-17T21:29:17.195Z,100432.69
2022-09-17T21:31:45.649Z,100425.66
2022-09-17T21:34:16.285Z,100422.31
2022-09-17T21:36:46.454Z,100422.53
2022-09-17T21:39:16.881Z,100424.50
2022-09-17T21:41:47.739Z,100428.16
2022-09-17T21:44:16.738Z,100423.75
2022-09-17T21:46:45.015Z,100432.69
2022-09-17T21:49:16.412Z,100432.59
2022-09-17T21:51:44.640Z,100427.94
2022-09-17T21:54:16.849Z,100435.81
2022-09-17T21:56:45.926Z,100443.78
2022-09-17T21:59:16.836Z,100432.78
2022-09-17T22:01:50.731Z,100432.69
2022-09-17T22:04:23.148Z,100428.16
2022-09-17T22:06:51.587Z,100425.38
2022-09-17T22:09:23.403Z,100427.31
2022-09-17T22:11:52.351Z,100419.28
2022-09-17T22:14:25.137Z,100416.72
2022-09-17T22:16:54.631Z,100424.16
2022-09-17T22:19:25.809Z,100417.03
2022-09-17T22:21:56.224Z,100420.59
2022-09-17T22:24:25.778Z,100416.94
2022-09-17T22:26:58.241Z,100423.06
2022-09-17T22:29:31.414Z,100414.88
2022-09-17T22:31:59.640Z,100426.34
2022-09-17T22:34:29.745Z,100427.09
2022-09-17T22:36:59.053Z,100426.97
2022-09-17T22:39:27.241Z,100425.88
2022-09-17T22:41:57.819Z,100421.25
2022-09-17T22:44:26.162Z,100424.69
2022-09-17T22:46:54.392Z,100421.13
2022-09-17T22:49:22.683Z,100417.56
2022-09-17T22:51:52.234Z,100414.03
2022-09-17T22:54:20.664Z,100422.97
2022-09-17T22:56:49.960Z,100415.75
2022-09-17T22:59:19.101Z,100413.91
2022-09-17T23:01:47.726Z,100413.81
2022-09-17T23:04:16.018Z,100420.09
2022-09-17T23:06:44.240Z,100409.41
2022-09-17T23:09:15.495Z,100411.31
2022-09-17T23:11:46.621Z,100406.16
2022-09-17T23:14:17.687Z,100410.03
2022-09-17T23:16:48.918Z,100402.25
2022-09-17T23:19:19.017Z,100400.66
2022-09-17T23:21:47.954Z,100402.69
2022-09-17T23:24:20.381Z,100405.63
2022-09-17T23:26:49.304Z,100403.03
2022-09-17T23:29:17.900Z,100398.69
2022-09-17T23:31:46.174Z,100393.31
2022-09-17T23:34:14.418Z,100387.91
2022-09-17T23:36:42.698Z,100398.63
2022-09-17T23:39:13.003Z,100389.63
2022-09-17T23:41:45.422Z,100392.31
2022-09-17T23:44:16.096Z,100389.63
2022-09-17T23:46:46.212Z,100385.31
2022-09-17T23:49:15.502Z,100394.38
2022-09-17T23:51:43.839Z,100390.06
2022-09-17T23:54:12.489Z,100391.03
2022-09-17T23:56:42.201Z,100384.78
2022-09-17T23:59:11.760Z,100386.63
